Hlavní strana
METAR-TAF:

METAR-TAF

Letiště :

Orsk, Rusko

zeměpisná šířka: 51-04-18N, zeměpisná délka: 058-35-48E, výška: 277 m

Aktuální stav počasí

Zpráva byla vytvořena před 1 hodinou a 10 minutami, v 23:00 UTC
Západní vítr 6 kt
Teplota -3°C
Vlhkost vzduchu 80%
Tlak 1016 hPa
Viditelnost 10 km a více
Žádná oblačnost pod 1500 m, nevyskytují se cumulonimby.

METAR: UWOR 212300Z 28003MPS CAVOK M03/M06 Q1016 R25/CLRD60 NOSIG RMK QFE738/0985

Čas: 05:10 (00:10 UTC)

Předpověď počasí

Zpráva byla vytvořena před 1 hodinou a 20 minutami, v 22:50 UTC
Předpověď platná od 22 v 00 UTC do 22 v 09 UTC
Západojihozápadní vítr 6 kt
Viditelnost: 3100 m
Oblačno až skoro zataženo ve výšce 1100 ft
kouřmo
Dočasný
od 22 v 00 UTC do 22 v 06 UTC
vítr z různých směrů 2 kt
Viditelnost: 0400 m
ve výšce 200 ft
mrznoucí mlha

TAF: UWOR 212250Z 2200/2209 25003MPS 3100 BR BKN011 TEMPO 2200/2206 VRB01MPS 0400 FZFG VV002

Stav a předpovědi počasí z více než 4 000 letišť (zprávy METAR a TAF).

Červené a žluté tečky na mapě představují dostupné meteorologické stanice.

Když kurzor umístíte na tečku, zobrazí se název stanice.

Pak kliknutím zobrazíte stav a předpověď počasí.

Chcete-li změnit mapu, kliknutím na zelené tlačítko se znaménkem +mapu přiblížíte, kliknutím na zelené tlačítko se znaménkem – mapu oddálíte a kliknutím na zelené šipky přejdete na sousední mapy.


METAR-TAF: